Time;durP1;ratioP1;P1;durP2;ratioP2;P2;SDS_P1;SDS_P2;PMS_P1;PMS_P2;Temp;Humidity;BMP_temperature;BMP_pressure;BME280_temperature;BME280_humidity;BME280_pressure;Samples;Min_cycle;Max_cycle;Signal;HPM_P1;HPM_P2
2022/04/16 00:00:56;;;;;;;16.77;13.40;;;10.20;99.90;;;;;;5059646;28;39263;-75
2022/04/16 00:03:23;;;;;;;18.65;14.57;;;10.30;99.90;;;;;;5055464;28;39185;-76
2022/04/16 00:05:55;;;;;;;18.17;13.98;;;10.30;99.90;;;;;;5043288;28;37523;-75
2022/04/16 00:08:27;;;;;;;17.10;14.13;;;10.20;99.90;;;;;;5059052;28;40523;-76
2022/04/16 00:10:53;;;;;;;17.10;13.90;;;10.20;99.90;;;;;;5067773;28;39363;-75
2022/04/16 00:13:24;;;;;;;19.13;13.20;;;10.20;99.90;;;;;;5057397;27;35643;-75
2022/04/16 00:15:52;;;;;;;18.20;12.85;;;10.20;99.90;;;;;;5058942;28;36584;-75
2022/04/16 00:18:21;;;;;;;16.38;13.68;;;10.20;99.90;;;;;;5064239;27;38684;-76
2022/04/16 00:20:51;;;;;;;17.10;14.57;;;10.20;99.90;;;;;;5057482;28;37626;-76
2022/04/16 00:23:21;;;;;;;17.92;14.95;;;10.20;99.90;;;;;;5045125;28;37189;-75
2022/04/16 00:25:49;;;;;;;17.60;13.55;;;10.10;99.90;;;;;;5032590;28;38960;-76
2022/04/16 00:28:16;;;;;;;16.80;13.90;;;10.10;99.90;;;;;;5045273;28;39865;-75
2022/04/16 00:30:42;;;;;;;17.05;14.35;;;10.10;99.90;;;;;;5046906;28;37617;-75
2022/04/16 00:33:10;;;;;;;17.75;14.40;;;10.10;99.90;;;;;;5062943;28;36899;-76
2022/04/16 00:35:37;;;;;;;17.25;15.40;;;10.10;99.90;;;;;;5054229;28;36387;-75
2022/04/16 00:38:04;;;;;;;17.10;14.02;;;10.10;99.90;;;;;;5039705;28;38832;-77
2022/04/16 00:40:30;;;;;;;16.35;14.60;;;10.10;99.90;;;;;;5066770;28;37302;-76
2022/04/16 00:42:57;;;;;;;17.05;14.60;;;10.10;99.90;;;;;;5062053;28;37596;-75
2022/04/16 00:45:23;;;;;;;18.05;14.52;;;10.10;99.90;;;;;;5066094;28;36386;-76
2022/04/16 00:47:49;;;;;;;17.27;13.82;;;10.10;99.90;;;;;;5065622;28;39269;-76
2022/04/16 00:50:18;;;;;;;18.20;13.63;;;10.10;99.90;;;;;;5077484;28;38412;-76
2022/04/16 00:52:44;;;;;;;18.02;14.10;;;10.10;99.90;;;;;;5062188;28;39406;-76
2022/04/16 00:55:13;;;;;;;18.52;13.48;;;10.10;99.90;;;;;;5061829;28;37406;-76
2022/04/16 00:57:41;;;;;;;15.40;13.27;;;10.00;99.90;;;;;;5063480;28;39994;-76
2022/04/16 01:00:12;;;;;;;16.30;14.03;;;10.00;99.90;;;;;;5060370;28;37854;-76
2022/04/16 01:02:39;;;;;;;20.37;13.23;;;10.10;99.90;;;;;;5060919;28;38001;-76
2022/04/16 01:05:07;;;;;;;17.33;14.32;;;10.00;99.90;;;;;;5061889;28;36208;-75
2022/04/16 01:07:39;;;;;;;16.33;12.48;;;10.00;99.90;;;;;;5060393;28;41797;-75
2022/04/16 01:10:06;;;;;;;17.80;13.88;;;10.00;99.90;;;;;;5071939;28;38315;-75
2022/04/16 01:12:32;;;;;;;16.95;13.63;;;9.90;99.90;;;;;;5038955;28;36753;-75
2022/04/16 01:14:58;;;;;;;17.58;13.60;;;9.90;99.90;;;;;;5060469;28;36142;-76
2022/04/16 01:17:24;;;;;;;16.70;14.82;;;9.80;99.90;;;;;;5056634;28;37811;-76
2022/04/16 01:19:50;;;;;;;18.92;14.80;;;9.80;99.90;;;;;;5049254;28;37893;-76
2022/04/16 01:22:16;;;;;;;18.30;14.63;;;9.80;99.90;;;;;;5051187;28;38166;-75
2022/04/16 01:24:48;;;;;;;19.23;14.60;;;9.70;99.90;;;;;;5053773;28;37362;-75
2022/04/16 01:27:15;;;;;;;19.95;15.07;;;9.70;99.90;;;;;;5071447;27;38872;-76
2022/04/16 01:29:42;;;;;;;18.33;14.43;;;9.50;99.90;;;;;;5050269;28;38678;-75
2022/04/16 01:32:10;;;;;;;18.57;15.70;;;9.50;99.90;;;;;;5064940;28;37487;-76
2022/04/16 01:34:36;;;;;;;18.10;16.07;;;9.40;99.90;;;;;;5066561;28;36579;-75
2022/04/16 01:37:04;;;;;;;22.97;17.00;;;9.30;99.90;;;;;;5046654;28;38791;-75
2022/04/16 01:39:33;;;;;;;23.90;17.77;;;9.20;99.90;;;;;;5059407;28;38208;-75
2022/04/16 01:42:01;;;;;;;21.60;17.07;;;9.20;99.90;;;;;;5066532;28;37485;-75
2022/04/16 01:44:29;;;;;;;23.43;18.23;;;9.10;99.90;;;;;;5071153;28;46277;-75
2022/04/16 01:46:56;;;;;;;24.87;17.73;;;9.10;99.90;;;;;;5063464;28;38752;-75
2022/04/16 01:49:23;;;;;;;23.00;17.67;;;9.10;99.90;;;;;;5065259;28;39050;-75
2022/04/16 01:51:49;;;;;;;22.30;19.00;;;9.00;99.90;;;;;;5084602;28;36842;-75
2022/04/16 01:54:24;;;;;;;21.00;18.23;;;9.00;99.90;;;;;;5068149;28;38138;-75
2022/04/16 01:56:51;;;;;;;21.90;18.13;;;9.00;99.90;;;;;;5056544;28;37954;-74
2022/04/16 01:59:23;;;;;;;21.70;18.33;;;8.90;99.90;;;;;;5055965;28;38703;-75
2022/04/16 02:01:49;;;;;;;23.52;18.42;;;8.90;99.90;;;;;;5077660;28;36915;-75
2022/04/16 02:04:15;;;;;;;22.53;18.40;;;8.90;99.90;;;;;;5062112;28;38136;-75
2022/04/16 02:06:41;;;;;;;24.97;20.60;;;8.80;99.90;;;;;;5064220;28;38228;-75
2022/04/16 02:09:07;;;;;;;22.47;19.30;;;8.80;99.90;;;;;;5072510;28;38409;-74
2022/04/16 02:11:33;;;;;;;23.10;19.47;;;8.80;99.90;;;;;;5066129;28;39387;-75
2022/04/16 02:13:59;;;;;;;22.87;18.57;;;8.80;99.90;;;;;;5061261;28;38805;-75
2022/04/16 02:16:25;;;;;;;23.43;19.23;;;8.80;99.90;;;;;;5076316;28;37611;-75
2022/04/16 02:18:54;;;;;;;21.63;19.07;;;8.80;99.90;;;;;;5064664;28;39329;-77
2022/04/16 02:21:22;;;;;;;25.57;19.37;;;8.80;99.90;;;;;;5060819;28;38938;-75
2022/04/16 02:23:52;;;;;;;24.67;18.93;;;8.80;99.90;;;;;;5063735;28;37656;-77
2022/04/16 02:26:21;;;;;;;20.13;17.30;;;8.80;99.90;;;;;;5065737;28;39120;-76
2022/04/16 02:28:48;;;;;;;24.50;19.63;;;8.70;99.90;;;;;;5061214;28;38941;-77
2022/04/16 02:31:14;;;;;;;23.07;17.93;;;8.70;99.90;;;;;;5067295;28;38182;-76
2022/04/16 02:33:41;;;;;;;23.27;18.57;;;8.70;99.90;;;;;;5076968;28;37644;-77
2022/04/16 02:36:07;;;;;;;22.90;17.20;;;8.60;99.90;;;;;;5056241;28;40143;-77
2022/04/16 02:38:34;;;;;;;22.27;17.27;;;8.60;99.90;;;;;;5057921;28;38050;-76
2022/04/16 02:41:00;;;;;;;23.13;17.70;;;8.60;99.90;;;;;;5063236;28;38174;-77
2022/04/16 02:43:26;;;;;;;22.30;17.23;;;8.50;99.90;;;;;;5060012;28;38466;-77
2022/04/16 02:48:37;;;;;;;20.43;17.30;;;8.50;99.90;;;;;;5063039;28;49413;-76
2022/04/16 02:51:03;;;;;;;22.70;17.37;;;8.40;99.90;;;;;;5074710;28;38006;-77
2022/04/16 02:53:34;;;;;;;18.77;16.23;;;8.30;99.90;;;;;;5081260;27;37176;-76
2022/04/16 02:56:01;;;;;;;19.87;16.77;;;8.30;99.90;;;;;;5059671;28;39383;-77
2022/04/16 02:58:27;;;;;;;25.07;18.40;;;8.20;99.90;;;;;;5058455;28;47620;-77
2022/04/16 03:00:54;;;;;;;23.03;17.27;;;8.20;99.90;;;;;;5061582;28;38583;-76
2022/04/16 03:03:22;;;;;;;24.37;18.47;;;8.20;99.90;;;;;;5065537;28;38541;-76
2022/04/16 03:05:48;;;;;;;24.47;18.60;;;8.20;99.90;;;;;;5066582;28;39863;-77
2022/04/16 03:08:15;;;;;;;24.10;19.07;;;8.20;99.90;;;;;;5071331;28;39882;-76
2022/04/16 03:10:41;;;;;;;22.53;17.83;;;8.20;99.90;;;;;;5078869;28;39424;-77
2022/04/16 03:13:08;;;;;;;21.67;18.30;;;8.10;99.90;;;;;;5070656;28;37438;-76
2022/04/16 03:18:19;;;;;;;22.30;17.17;;;8.00;99.90;;;;;;5063450;28;39951;-77
2022/04/16 03:20:45;;;;;;;21.90;17.43;;;8.00;99.90;;;;;;5077620;28;38455;-76
2022/04/16 03:23:17;;;;;;;21.47;18.57;;;7.90;99.90;;;;;;5062509;28;37538;-76
2022/04/16 03:25:43;;;;;;;22.23;18.35;;;7.80;99.90;;;;;;5062491;28;39410;-77
2022/04/16 03:28:10;;;;;;;24.80;19.17;;;7.80;99.90;;;;;;5059382;28;37382;-76
2022/04/16 03:30:37;;;;;;;27.13;20.77;;;7.70;99.90;;;;;;5060556;28;39117;-76
2022/04/16 03:33:03;;;;;;;24.43;18.80;;;7.70;99.90;;;;;;5059336;28;38591;-77
2022/04/16 03:35:29;;;;;;;25.53;20.57;;;7.60;99.90;;;;;;5060410;28;38870;-77
2022/04/16 03:37:56;;;;;;;25.23;20.20;;;7.60;99.90;;;;;;5075240;28;38646;-77
2022/04/16 03:40:26;;;;;;;25.23;19.47;;;7.50;99.90;;;;;;5080886;28;39146;-77
2022/04/16 03:42:56;;;;;;;28.40;21.60;;;7.50;99.90;;;;;;5061728;28;37804;-76
2022/04/16 03:45:33;;;;;;;27.13;21.17;;;7.50;99.90;;;;;;5061536;28;39365;-77
2022/04/16 03:48:02;;;;;;;28.00;22.20;;;7.40;99.90;;;;;;5061664;28;38491;-76
2022/04/16 03:50:32;;;;;;;30.23;22.40;;;7.40;99.90;;;;;;5063526;28;47573;-76
2022/04/16 03:52:59;;;;;;;28.67;20.90;;;7.50;99.90;;;;;;5067791;28;37299;-76
2022/04/16 04:01:01;;;;;;;26.00;21.87;;;7.30;99.90;;;;;;5067580;28;38540;-76
2022/04/16 04:03:27;;;;;;;29.83;21.83;;;7.30;99.90;;;;;;5068295;28;48677;-77
2022/04/16 04:05:55;;;;;;;26.90;20.97;;;7.30;99.90;;;;;;5063398;28;38408;-76
2022/04/16 04:08:25;;;;;;;26.20;22.10;;;7.30;99.90;;;;;;5058150;28;38443;-76
2022/04/16 04:10:51;;;;;;;29.10;22.40;;;7.30;99.90;;;;;;5061135;28;39603;-76
2022/04/16 04:13:20;;;;;;;31.43;24.93;;;7.30;99.90;;;;;;5078899;28;38769;-76
2022/04/16 04:15:47;;;;;;;29.57;23.40;;;7.30;99.90;;;;;;5064998;28;39924;-76
2022/04/16 04:18:13;;;;;;;32.67;24.30;;;7.20;99.90;;;;;;5062477;27;38008;-76
2022/04/16 04:20:39;;;;;;;36.10;23.70;;;7.20;99.90;;;;;;5062691;28;38380;-76
2022/04/16 04:23:09;;;;;;;30.37;23.73;;;7.10;99.90;;;;;;5059626;28;38158;-76
2022/04/16 04:25:35;;;;;;;33.97;24.20;;;7.10;99.90;;;;;;5065012;28;40807;-76
2022/04/16 04:28:01;;;;;;;32.37;23.90;;;7.10;99.90;;;;;;5063802;28;37309;-76
2022/04/16 04:30:29;;;;;;;36.60;25.40;;;7.10;99.90;;;;;;5067351;28;37701;-77
2022/04/16 04:32:58;;;;;;;31.93;23.50;;;7.10;99.90;;;;;;5066212;28;37772;-78
2022/04/16 04:35:25;;;;;;;33.10;24.17;;;7.10;99.90;;;;;;5077875;28;38176;-76
2022/04/16 04:37:52;;;;;;;34.60;25.57;;;7.00;99.90;;;;;;5063287;28;37648;-76
2022/04/16 04:40:18;;;;;;;33.93;24.40;;;7.00;99.90;;;;;;5067968;28;36173;-76
2022/04/16 04:42:45;;;;;;;31.57;24.90;;;7.00;99.90;;;;;;5060747;28;20037;-76
2022/04/16 04:45:13;;;;;;;36.20;25.00;;;7.10;99.90;;;;;;5063513;28;38730;-77
2022/04/16 04:47:40;;;;;;;36.77;26.23;;;7.10;99.90;;;;;;5080316;28;37287;-76
2022/04/16 04:50:07;;;;;;;35.73;26.23;;;7.10;99.90;;;;;;5060809;28;38383;-76
2022/04/16 04:52:36;;;;;;;34.93;24.37;;;7.10;99.90;;;;;;5053003;28;36524;-76
2022/04/16 04:55:06;;;;;;;33.97;25.33;;;7.10;99.90;;;;;;5062711;28;39178;-76
2022/04/16 04:57:32;;;;;;;38.47;25.70;;;7.00;99.90;;;;;;5065022;28;37689;-76
2022/04/16 04:59:58;;;;;;;35.70;25.70;;;7.00;99.90;;;;;;5081885;28;37317;-75
2022/04/16 05:02:24;;;;;;;35.57;24.97;;;7.00;99.90;;;;;;5061542;28;36354;-76
2022/04/16 05:04:50;;;;;;;33.00;24.23;;;7.00;99.90;;;;;;5063612;28;38645;-76
2022/04/16 05:07:17;;;;;;;33.00;24.43;;;7.00;99.90;;;;;;5059329;28;37459;-76
2022/04/16 05:09:43;;;;;;;32.60;24.67;;;7.00;99.90;;;;;;5065391;28;38336;-75
2022/04/16 05:12:11;;;;;;;32.33;25.00;;;7.00;99.90;;;;;;5066958;28;37617;-76
2022/04/16 05:14:38;;;;;;;36.07;26.27;;;7.00;99.90;;;;;;5062154;28;38530;-76
2022/04/16 05:17:04;;;;;;;33.40;25.67;;;7.10;99.90;;;;;;5062657;28;38441;-75
2022/04/16 05:19:30;;;;;;;35.07;26.07;;;7.10;99.90;;;;;;5061303;28;38006;-76
2022/04/16 05:21:59;;;;;;;32.57;24.93;;;7.00;99.90;;;;;;5079119;28;35603;-76
2022/04/16 05:24:25;;;;;;;32.93;25.27;;;7.00;99.90;;;;;;5060932;28;38827;-76
2022/04/16 05:26:51;;;;;;;30.13;23.80;;;7.00;99.90;;;;;;5065376;28;38770;-75
2022/04/16 05:29:18;;;;;;;37.97;26.43;;;7.10;99.90;;;;;;5053291;28;38901;-76
2022/04/16 05:31:44;;;;;;;34.87;26.10;;;7.10;99.90;;;;;;5066841;28;37448;-75
2022/04/16 05:34:19;;;;;;;39.43;26.57;;;7.10;99.90;;;;;;5063734;27;38589;-76
2022/04/16 05:36:48;;;;;;;34.60;25.30;;;7.10;99.90;;;;;;5059572;28;37897;-76
2022/04/16 05:39:15;;;;;;;37.70;27.50;;;7.20;99.90;;;;;;5074315;28;37117;-76
2022/04/16 05:41:41;;;;;;;33.80;25.00;;;7.20;99.90;;;;;;5057568;28;36109;-76
2022/04/16 05:44:13;;;;;;;38.00;25.67;;;7.20;99.90;;;;;;5053862;28;38595;-76
2022/04/16 05:46:40;;;;;;;35.00;25.73;;;7.30;99.90;;;;;;5064589;28;38775;-76
2022/04/16 05:49:06;;;;;;;34.70;26.03;;;7.30;99.90;;;;;;5060838;28;39350;-76
2022/04/16 05:51:32;;;;;;;36.23;26.43;;;7.30;99.90;;;;;;5054085;28;38182;-76
2022/04/16 05:54:04;;;;;;;35.70;26.33;;;7.40;99.90;;;;;;5051853;28;39472;-76
2022/04/16 05:56:30;;;;;;;34.35;26.27;;;7.40;99.90;;;;;;5042056;28;48807;-76
2022/04/16 05:58:59;;;;;;;37.63;26.73;;;7.50;99.90;;;;;;5055783;28;38276;-76
2022/04/16 06:01:25;;;;;;;39.03;27.30;;;7.60;99.90;;;;;;5075271;28;38080;-76
2022/04/16 06:03:51;;;;;;;35.87;26.83;;;7.60;99.90;;;;;;5060635;28;39604;-76
2022/04/16 06:06:17;;;;;;;39.33;25.97;;;7.70;99.90;;;;;;5062498;28;38524;-76
2022/04/16 06:08:43;;;;;;;38.87;26.23;;;7.70;99.90;;;;;;5064742;28;37844;-76
2022/04/16 06:11:11;;;;;;;35.27;25.90;;;7.80;99.90;;;;;;5060920;28;39279;-75
2022/04/16 06:13:37;;;;;;;35.03;24.93;;;7.90;99.90;;;;;;5062511;28;38456;-76
2022/04/16 06:16:06;;;;;;;35.13;26.70;;;7.90;99.90;;;;;;5062356;28;38797;-75
2022/04/16 06:18:32;;;;;;;36.47;26.40;;;8.00;99.90;;;;;;5061802;28;39225;-76
2022/04/16 06:20:58;;;;;;;35.20;26.50;;;8.00;99.90;;;;;;5061595;28;37169;-75
2022/04/16 06:23:24;;;;;;;37.93;26.00;;;8.10;99.90;;;;;;5065117;28;39081;-76
2022/04/16 06:25:50;;;;;;;37.67;27.73;;;8.10;99.90;;;;;;5076547;28;38609;-76
2022/04/16 06:28:16;;;;;;;36.13;24.67;;;8.20;99.90;;;;;;5061549;28;37890;-76
2022/04/16 06:30:42;;;;;;;36.30;25.27;;;8.30;99.90;;;;;;5074932;28;37856;-76
2022/04/16 06:33:08;;;;;;;34.47;25.60;;;8.30;99.90;;;;;;5069798;28;39133;-76
2022/04/16 06:35:34;;;;;;;33.77;26.37;;;8.30;99.90;;;;;;5060344;28;38479;-76
2022/04/16 06:38:00;;;;;;;35.70;27.10;;;8.40;99.90;;;;;;5084325;28;38383;-76
2022/04/16 06:40:26;;;;;;;36.03;28.13;;;8.40;99.90;;;;;;5061447;28;40120;-76
2022/04/16 06:42:52;;;;;;;39.00;27.80;;;8.50;99.90;;;;;;5059110;28;38768;-76
2022/04/16 06:45:19;;;;;;;37.20;26.13;;;8.50;99.90;;;;;;5060891;28;38641;-77
2022/04/16 06:47:45;;;;;;;35.27;26.30;;;8.60;99.90;;;;;;5066877;28;38075;-76
2022/04/16 06:50:11;;;;;;;39.63;27.20;;;8.60;99.90;;;;;;5065341;28;37843;-76
2022/04/16 06:52:37;;;;;;;38.23;27.77;;;8.70;99.90;;;;;;5066189;28;37743;-77
2022/04/16 06:55:04;;;;;;;34.77;26.50;;;8.70;99.90;;;;;;5066698;28;38760;-76
2022/04/16 06:57:31;;;;;;;41.37;28.83;;;8.80;99.90;;;;;;5072249;28;38495;-77
2022/04/16 06:59:57;;;;;;;33.27;26.87;;;8.80;99.90;;;;;;5069012;28;37641;-76
2022/04/16 07:02:23;;;;;;;39.77;28.47;;;8.90;99.90;;;;;;5084596;28;39710;-76
2022/04/16 07:04:49;;;;;;;35.53;26.70;;;9.00;99.90;;;;;;5069637;28;38083;-76
2022/04/16 07:07:15;;;;;;;35.90;26.70;;;9.00;99.90;;;;;;5065836;28;39767;-76
2022/04/16 07:09:41;;;;;;;36.23;26.30;;;9.10;99.90;;;;;;5067586;28;39017;-76
2022/04/16 07:12:09;;;;;;;37.87;26.80;;;9.10;99.90;;;;;;5071193;28;38299;-76
2022/04/16 07:14:37;;;;;;;32.17;25.00;;;9.20;99.90;;;;;;5061703;28;38392;-76
2022/04/16 07:17:03;;;;;;;36.83;25.77;;;9.40;99.90;;;;;;5062568;28;37671;-77
2022/04/16 07:19:31;;;;;;;32.77;25.27;;;9.50;99.90;;;;;;5061031;28;36093;-77
2022/04/16 07:21:58;;;;;;;35.67;26.53;;;9.60;99.90;;;;;;5065447;28;39417;-77
2022/04/16 07:24:25;;;;;;;33.37;24.97;;;9.90;99.90;;;;;;5068290;28;40253;-74
2022/04/16 07:26:53;;;;;;;33.93;25.60;;;10.10;99.90;;;;;;5063169;28;38034;-74
2022/04/16 07:29:23;;;;;;;33.63;25.98;;;10.20;99.90;;;;;;5053549;28;37914;-75
2022/04/16 07:31:50;;;;;;;32.53;24.38;;;10.50;99.90;;;;;;5059571;28;39738;-75
2022/04/16 07:34:16;;;;;;;33.37;25.10;;;10.70;99.90;;;;;;5068767;27;39312;-74
2022/04/16 07:36:43;;;;;;;33.40;24.80;;;10.90;99.90;;;;;;5073650;28;41109;-74
2022/04/16 07:39:09;;;;;;;34.55;24.27;;;10.80;99.90;;;;;;5061622;28;38144;-76
2022/04/16 07:41:36;;;;;;;28.98;22.42;;;10.80;99.90;;;;;;5082368;28;38154;-75
2022/04/16 07:44:03;;;;;;;31.45;23.17;;;10.90;99.90;;;;;;5060303;28;38574;-74
2022/04/16 07:46:30;;;;;;;26.30;21.52;;;10.90;99.90;;;;;;5050959;28;38383;-76
2022/04/16 07:48:57;;;;;;;30.77;24.23;;;11.00;99.90;;;;;;5063106;28;38187;-75
2022/04/16 07:51:24;;;;;;;31.60;24.40;;;11.30;99.90;;;;;;5076323;28;39723;-75
2022/04/16 07:53:55;;;;;;;29.25;23.27;;;11.50;99.90;;;;;;5063531;28;38174;-75
2022/04/16 07:56:22;;;;;;;30.45;23.10;;;11.60;99.90;;;;;;5048930;28;38227;-75
2022/04/16 07:58:49;;;;;;;30.88;24.10;;;11.70;99.90;;;;;;5045993;28;37568;-75
2022/04/16 08:01:15;;;;;;;27.63;23.13;;;11.70;99.90;;;;;;5062960;28;38864;-76
2022/04/16 08:03:41;;;;;;;26.98;22.15;;;11.80;99.90;;;;;;5061242;28;37897;-76
2022/04/16 08:06:07;;;;;;;27.80;22.88;;;11.90;99.90;;;;;;5066388;28;36451;-75
2022/04/16 08:08:34;;;;;;;32.30;24.23;;;11.80;99.90;;;;;;5050130;28;39435;-76
2022/04/16 08:11:00;;;;;;;30.15;22.90;;;12.10;99.90;;;;;;5059508;28;39257;-76
2022/04/16 08:13:26;;;;;;;30.30;23.77;;;12.10;99.90;;;;;;5066669;28;40241;-75
2022/04/16 08:15:52;;;;;;;33.15;23.67;;;12.10;99.90;;;;;;5055904;28;38234;-75
2022/04/16 08:18:18;;;;;;;32.55;23.88;;;12.10;99.90;;;;;;5086063;28;36560;-78
2022/04/16 08:20:44;;;;;;;29.48;23.88;;;12.40;99.90;;;;;;5065557;28;37947;-77
2022/04/16 08:23:11;;;;;;;32.53;24.77;;;12.50;99.90;;;;;;5054068;28;38308;-78
2022/04/16 08:28:05;;;;;;;32.47;23.08;;;12.90;99.90;;;;;;5065448;28;37524;-77
2022/04/16 08:30:32;;;;;;;28.98;22.55;;;13.10;99.90;;;;;;5060888;28;39006;-76
2022/04/16 08:32:58;;;;;;;25.70;20.65;;;13.00;99.90;;;;;;5080420;28;37613;-77
2022/04/16 08:35:25;;;;;;;28.45;22.20;;;13.00;99.90;;;;;;5059331;28;39365;-76
2022/04/16 08:37:51;;;;;;;28.63;22.60;;;12.90;99.90;;;;;;5055508;28;38154;-77
2022/04/16 08:40:19;;;;;;;26.65;21.65;;;13.20;99.90;;;;;;5074051;28;37735;-78
2022/04/16 08:42:48;;;;;;;26.50;21.30;;;13.60;99.90;;;;;;5059822;28;38003;-78
2022/04/16 08:45:15;;;;;;;25.02;20.15;;;13.80;99.90;;;;;;5061745;28;39543;-78
2022/04/16 08:47:42;;;;;;;27.70;20.77;;;13.80;99.90;;;;;;5062774;28;38318;-78
2022/04/16 08:50:11;;;;;;;24.25;19.20;;;13.80;99.90;;;;;;5075693;28;39292;-78
2022/04/16 08:52:38;;;;;;;23.48;18.45;;;13.80;99.90;;;;;;5061239;28;38232;-79
2022/04/16 08:55:06;;;;;;;23.20;18.67;;;14.00;99.90;;;;;;5062858;28;39756;-79
2022/04/16 08:57:33;;;;;;;23.52;19.27;;;14.10;99.90;;;;;;5084133;28;37805;-79
2022/04/16 08:59:59;;;;;;;25.25;19.45;;;14.20;99.90;;;;;;5063706;28;37496;-80
2022/04/16 09:02:26;;;;;;;32.83;19.35;;;14.40;99.90;;;;;;5061884;28;37099;-78
2022/04/16 09:05:06;;;;;;;24.35;18.48;;;14.30;99.90;;;;;;5063767;28;39413;-79
2022/04/16 09:08:03;;;;;;;22.25;18.58;;;14.40;99.90;;;;;;5059442;28;47096;-79
2022/04/16 09:10:32;;;;;;;22.30;17.63;;;14.70;99.90;;;;;;5062378;28;47195;-79
2022/04/16 09:13:01;;;;;;;21.83;15.98;;;15.00;99.90;;;;;;5070271;28;38990;-79
2022/04/16 09:15:28;;;;;;;23.60;18.17;;;15.00;99.90;;;;;;5062045;28;47169;-78
2022/04/16 09:18:02;;;;;;;21.15;17.05;;;15.30;99.90;;;;;;5074153;27;38200;-79
2022/04/16 09:20:39;;;;;;;21.25;17.23;;;14.90;99.90;;;;;;5056965;28;47188;-79
2022/04/16 09:23:20;;;;;;;19.70;16.00;;;15.00;99.90;;;;;;5062307;28;37276;-79
2022/04/16 09:25:47;;;;;;;17.88;14.18;;;15.20;99.90;;;;;;5064438;28;39008;-78
2022/04/16 09:28:15;;;;;;;18.08;14.52;;;15.40;99.90;;;;;;5079170;27;36251;-78
2022/04/16 09:30:57;;;;;;;21.00;15.95;;;15.40;99.90;;;;;;5043011;28;38142;-80
2022/04/16 09:33:24;;;;;;;21.77;14.05;;;15.30;99.90;;;;;;5043384;28;38566;-77
2022/04/16 09:35:55;;;;;;;16.65;13.45;;;15.30;99.90;;;;;;5059729;28;39064;-78
2022/04/16 09:38:21;;;;;;;17.25;13.60;;;15.30;99.90;;;;;;5056324;28;38386;-77
2022/04/16 09:40:48;;;;;;;16.88;14.07;;;15.20;99.90;;;;;;5054422;28;38713;-78
2022/04/16 09:43:14;;;;;;;18.02;14.77;;;15.40;99.90;;;;;;5060462;28;38276;-77
2022/04/16 09:45:42;;;;;;;17.52;13.82;;;15.40;99.90;;;;;;5047674;28;39017;-75
2022/04/16 09:48:12;;;;;;;16.98;14.50;;;15.60;99.90;;;;;;5059253;28;38400;-75
2022/04/16 09:50:41;;;;;;;20.38;15.73;;;15.70;99.90;;;;;;5062476;28;39840;-75
2022/04/16 09:53:08;;;;;;;19.02;15.48;;;15.90;99.90;;;;;;5058768;28;37714;-75
2022/04/16 09:55:36;;;;;;;18.13;15.50;;;16.10;99.90;;;;;;5062978;28;37559;-75
2022/04/16 09:58:04;;;;;;;18.98;15.13;;;16.10;99.90;;;;;;5061579;28;37248;-75
2022/04/16 10:00:33;;;;;;;18.38;15.32;;;16.20;99.90;;;;;;5054137;28;38807;-75
2022/04/16 10:03:00;;;;;;;17.70;15.35;;;16.10;99.90;;;;;;5053167;28;38259;-76
2022/04/16 10:05:26;;;;;;;20.48;14.90;;;16.00;99.90;;;;;;5053288;28;38323;-76
2022/04/16 10:07:53;;;;;;;16.73;14.32;;;15.80;99.90;;;;;;5059708;28;37891;-76
2022/04/16 10:10:40;;;;;;;18.77;15.20;;;15.80;99.90;;;;;;5054788;28;39661;-76
2022/04/16 10:13:10;;;;;;;16.05;14.00;;;16.20;99.90;;;;;;5061001;28;39128;-76
2022/04/16 10:16:04;;;;;;;18.15;14.80;;;16.00;99.90;;;;;;5048711;28;38146;-76
2022/04/16 10:18:33;;;;;;;15.88;13.38;;;16.10;99.90;;;;;;5032275;28;47494;-76
2022/04/16 10:21:01;;;;;;;19.35;15.35;;;16.30;99.90;;;;;;5047397;28;37942;-75
2022/04/16 10:23:36;;;;;;;17.85;14.60;;;16.40;99.90;;;;;;5048859;28;47466;-75
2022/04/16 10:26:09;;;;;;;19.30;14.80;;;16.30;99.90;;;;;;5054909;28;37697;-76
2022/04/16 10:28:40;;;;;;;18.60;15.10;;;16.40;99.90;;;;;;5053770;28;36523;-75
2022/04/16 10:31:19;;;;;;;19.73;14.43;;;16.70;99.90;;;;;;5061249;28;38836;-77
2022/04/16 10:33:58;;;;;;;16.00;12.82;;;17.10;99.90;;;;;;5048055;28;38252;-74
2022/04/16 10:36:48;;;;;;;14.50;11.63;;;16.80;99.90;;;;;;5053415;28;38172;-74
2022/04/16 10:39:15;;;;;;;14.48;11.57;;;16.70;99.90;;;;;;5029165;28;37864;-74
2022/04/16 10:41:56;;;;;;;13.10;11.50;;;17.00;99.90;;;;;;5066545;28;38930;-74
2022/04/16 10:44:23;;;;;;;12.85;10.70;;;17.10;99.90;;;;;;5067019;28;38392;-74
2022/04/16 10:46:51;;;;;;;13.10;10.00;;;16.90;99.90;;;;;;5070312;28;39228;-74
2022/04/16 10:49:19;;;;;;;11.95;10.15;;;16.80;99.90;;;;;;5063346;28;36883;-75
2022/04/16 10:51:46;;;;;;;11.98;10.00;;;17.00;99.90;;;;;;5060728;28;38932;-77
2022/04/16 10:54:27;;;;;;;14.73;10.60;;;16.90;99.90;;;;;;5065077;28;39316;-77
2022/04/16 10:56:54;;;;;;;12.75;10.73;;;17.00;99.90;;;;;;5054019;28;38268;-80
2022/04/16 10:59:38;;;;;;;13.30;9.32;;;17.20;99.90;;;;;;5058397;28;37547;-75
2022/04/16 11:02:15;;;;;;;12.75;11.05;;;17.40;99.90;;;;;;5057478;28;40626;-75
2022/04/16 11:04:41;;;;;;;13.05;10.68;;;17.50;99.90;;;;;;5062521;28;39108;-74
2022/04/16 11:07:08;;;;;;;13.70;10.15;;;17.80;99.90;;;;;;5064794;27;37396;-78
2022/04/16 11:09:35;;;;;;;11.07;9.85;;;17.80;99.90;;;;;;5056904;28;37907;-78
2022/04/16 11:12:07;;;;;;;12.40;10.20;;;18.00;99.90;;;;;;5065785;28;39655;-75
2022/04/16 11:14:35;;;;;;;12.45;10.23;;;17.90;99.90;;;;;;5064557;28;48614;-78
2022/04/16 11:17:03;;;;;;;12.45;10.25;;;18.40;99.90;;;;;;5057046;28;39147;-77
2022/04/16 11:19:31;;;;;;;11.80;10.07;;;18.30;99.90;;;;;;5051991;28;37444;-78
2022/04/16 11:21:57;;;;;;;11.35;10.15;;;18.30;99.90;;;;;;5059927;28;38970;-80
2022/04/16 11:24:23;;;;;;;12.95;10.68;;;17.90;99.90;;;;;;5066191;28;36939;-76
2022/04/16 11:35:12;;;;;;;12.40;9.27;;;18.80;99.90;;;;;;5070646;28;38987;-76
2022/04/16 11:37:38;;;;;;;12.73;9.60;;;19.50;99.90;;;;;;5067944;28;38740;-78
2022/04/16 11:40:08;;;;;;;12.98;9.68;;;19.90;99.90;;;;;;5070025;28;37699;-80
2022/04/16 11:42:35;;;;;;;10.40;7.50;;;19.90;99.90;;;;;;5067750;28;39867;-79
2022/04/16 11:45:01;;;;;;;9.32;8.05;;;19.30;99.90;;;;;;5067628;28;40163;-78
2022/04/16 11:47:35;;;;;;;9.18;7.60;;;19.30;99.90;;;;;;5076734;28;47287;-78
2022/04/16 11:50:03;;;;;;;7.90;6.55;;;19.30;99.90;;;;;;5071206;28;37946;-78
2022/04/16 11:52:32;;;;;;;6.93;6.13;;;18.90;99.90;;;;;;5057006;28;48973;-79
2022/04/16 11:55:10;;;;;;;10.32;6.55;;;19.30;99.90;;;;;;5062609;28;37044;-78
2022/04/16 11:57:39;;;;;;;7.90;7.03;;;18.70;99.90;;;;;;5063793;28;48877;-78
2022/04/16 12:00:07;;;;;;;6.55;5.85;;;18.80;99.90;;;;;;5065585;28;36132;-79
2022/04/16 12:02:36;;;;;;;6.78;6.07;;;18.60;99.90;;;;;;5067531;28;39630;-79
2022/04/16 12:05:15;;;;;;;6.40;5.40;;;18.50;99.90;;;;;;5053313;28;38644;-77
2022/04/16 12:07:49;;;;;;;6.70;5.63;;;18.10;99.90;;;;;;5062394;28;37444;-78
2022/04/16 12:10:16;;;;;;;8.55;6.45;;;18.40;99.90;;;;;;5043788;28;39060;-77
2022/04/16 12:12:48;;;;;;;6.03;5.43;;;18.60;99.90;;;;;;5073886;28;40709;-77
2022/04/16 12:15:25;;;;;;;7.35;6.63;;;18.10;99.90;;;;;;5058084;28;39719;-75
2022/04/16 12:17:53;;;;;;;7.53;6.75;;;18.10;99.90;;;;;;5044598;28;39004;-75
2022/04/16 12:20:20;;;;;;;8.60;6.03;;;18.50;99.90;;;;;;5051863;28;38919;-76
2022/04/16 12:22:55;;;;;;;7.78;6.60;;;18.20;99.90;;;;;;5049521;28;40331;-78
2022/04/16 12:25:23;;;;;;;7.50;6.40;;;18.60;99.90;;;;;;5062433;28;39745;-78
2022/04/16 12:27:58;;;;;;;7.13;6.43;;;18.30;99.90;;;;;;5070890;27;36383;-79
2022/04/16 12:30:27;;;;;;;6.20;5.30;;;18.30;99.90;;;;;;5070650;28;36574;-78
2022/04/16 12:33:02;;;;;;;6.90;5.57;;;19.20;99.90;;;;;;5070882;28;39844;-80
2022/04/16 12:35:30;;;;;;;6.47;5.78;;;19.80;99.90;;;;;;5062007;28;48579;-79
2022/04/16 12:37:58;;;;;;;6.55;5.82;;;19.40;99.90;;;;;;5068680;27;38078;-78
2022/04/16 12:40:25;;;;;;;8.20;6.20;;;19.20;99.90;;;;;;5064346;28;36388;-82
2022/04/16 12:42:56;;;;;;;6.13;5.53;;;19.50;99.90;;;;;;5060780;28;39816;-79
2022/04/16 12:45:23;;;;;;;7.10;5.10;;;19.50;99.90;;;;;;5049852;28;39025;-81
2022/04/16 12:47:50;;;;;;;5.88;5.25;;;19.70;99.90;;;;;;5056731;28;39947;-81
2022/04/16 12:50:16;;;;;;;5.70;5.10;;;19.80;99.90;;;;;;5067450;28;37464;-81
2022/04/16 12:52:44;;;;;;;5.93;4.75;;;19.20;99.90;;;;;;5069758;28;39641;-79
2022/04/16 12:55:11;;;;;;;5.53;4.82;;;19.40;99.90;;;;;;5059666;28;38761;-80
2022/04/16 12:57:37;;;;;;;5.45;4.95;;;19.70;99.90;;;;;;5062381;27;38371;-80
2022/04/16 13:00:06;;;;;;;5.90;5.20;;;20.20;99.90;;;;;;5050456;28;36442;-79